createdAt,value
2023-03-27T00:00:35.825Z,6.45
2023-03-27T00:03:23.403Z,2.15
2023-03-27T00:06:12.026Z,1.52
2023-03-27T00:09:17.594Z,2.55
2023-03-27T00:12:03.890Z,0.50
2023-03-27T00:14:49.937Z,0.60
2023-03-27T00:17:37.118Z,0.30
2023-03-27T00:20:23.574Z,5.75
2023-03-27T00:23:09.669Z,6.43
2023-03-27T00:25:57.845Z,0.40
2023-03-27T00:28:44.253Z,3.05
2023-03-27T00:31:30.515Z,0.40
2023-03-27T00:34:16.666Z,0.93
2023-03-27T00:37:04.960Z,0.50
2023-03-27T00:39:51.321Z,6.47
2023-03-27T00:42:37.427Z,1.45
2023-03-27T00:45:26.688Z,0.30
2023-03-27T00:48:13.147Z,1.65
2023-03-27T00:50:59.543Z,2.55
2023-03-27T00:53:46.187Z,0.73
2023-03-27T00:56:34.009Z,9.35
2023-03-27T00:59:21.494Z,1.02
2023-03-27T01:02:08.505Z,5.47
2023-03-27T01:04:55.214Z,3.97
2023-03-27T01:07:42.209Z,4.43
2023-03-27T01:10:56.560Z,0.40
2023-03-27T01:13:55.497Z,4.68
2023-03-27T01:16:52.477Z,0.40
2023-03-27T01:19:47.775Z,0.47
2023-03-27T01:22:40.041Z,1.27
2023-03-27T01:25:38.674Z,0.40
2023-03-27T01:28:41.483Z,0.40
2023-03-27T01:34:32.427Z,0.82
2023-03-27T01:37:25.015Z,0.40
2023-03-27T01:40:15.197Z,0.40
2023-03-27T01:43:06.070Z,2.38
2023-03-27T01:45:57.514Z,0.75
2023-03-27T01:48:45.447Z,0.52
2023-03-27T01:51:39.857Z,0.65
2023-03-27T01:54:29.803Z,1.23
2023-03-27T01:57:22.367Z,1.17
2023-03-27T02:03:20.816Z,0.50
2023-03-27T02:06:09.606Z,0.47
2023-03-27T02:09:03.300Z,0.68
2023-03-27T02:11:55.240Z,0.45
2023-03-27T02:14:45.554Z,0.40
2023-03-27T02:17:34.324Z,2.75
2023-03-27T02:20:21.137Z,1.05
2023-03-27T02:23:07.845Z,0.80
2023-03-27T02:25:55.276Z,2.70
2023-03-27T02:28:46.897Z,0.50
2023-03-27T02:31:40.260Z,1.60
2023-03-27T02:34:29.194Z,3.70
2023-03-27T02:37:49.915Z,6.78
2023-03-27T02:40:42.946Z,0.80
2023-03-27T02:44:15.933Z,1.55
2023-03-27T02:47:18.396Z,0.77
2023-03-27T02:50:26.129Z,3.83
2023-03-27T02:53:18.878Z,4.20
2023-03-27T02:56:06.952Z,0.60
2023-03-27T02:59:04.017Z,1.67
2023-03-27T03:01:55.736Z,0.80
2023-03-27T03:04:50.754Z,0.52
2023-03-27T03:07:41.726Z,4.80
2023-03-27T03:10:27.889Z,7.13
2023-03-27T03:13:15.128Z,0.35
2023-03-27T03:16:02.179Z,10.15
2023-03-27T03:18:48.432Z,5.53
2023-03-27T03:21:35.123Z,5.47
2023-03-27T03:24:22.451Z,1.55
2023-03-27T03:27:08.650Z,0.40
2023-03-27T03:30:10.640Z,0.30
2023-03-27T03:33:09.767Z,0.75
2023-03-27T03:35:59.194Z,5.20
2023-03-27T03:38:50.491Z,3.20
2023-03-27T03:41:36.684Z,4.82
2023-03-27T03:44:23.902Z,4.13
2023-03-27T03:47:10.000Z,1.08
2023-03-27T03:49:56.411Z,0.98
2023-03-27T03:52:42.613Z,0.50
2023-03-27T03:55:29.727Z,5.85
2023-03-27T03:58:16.618Z,1.23
2023-03-27T04:01:03.556Z,0.45
2023-03-27T04:03:57.162Z,0.52
2023-03-27T04:06:45.449Z,3.40
2023-03-27T04:09:31.606Z,12.18
2023-03-27T04:12:27.059Z,5.50
2023-03-27T04:15:19.532Z,2.08
2023-03-27T04:18:24.857Z,2.63
2023-03-27T04:21:18.031Z,2.80
2023-03-27T04:24:05.296Z,0.82
2023-03-27T04:27:02.048Z,0.60
2023-03-27T04:29:58.763Z,2.95
2023-03-27T04:33:09.507Z,20.98
2023-03-27T04:36:17.501Z,6.65
2023-03-27T04:39:22.563Z,1.45
2023-03-27T04:42:09.189Z,10.45
2023-03-27T04:44:55.449Z,1.65
2023-03-27T04:47:42.801Z,3.10
2023-03-27T04:50:28.846Z,5.30
2023-03-27T04:53:20.638Z,0.50
2023-03-27T04:56:07.497Z,3.28
2023-03-27T04:58:57.011Z,2.08
2023-03-27T05:01:43.090Z,3.30
2023-03-27T05:04:40.788Z,6.03
2023-03-27T05:07:34.430Z,13.68
2023-03-27T05:10:22.597Z,12.27
2023-03-27T05:13:10.286Z,37.50
2023-03-27T05:15:59.315Z,35.58
2023-03-27T05:18:46.779Z,18.60
2023-03-27T05:21:33.094Z,24.10
2023-03-27T05:24:19.704Z,20.73
2023-03-27T05:27:07.216Z,12.20
2023-03-27T05:29:55.885Z,15.98
2023-03-27T05:32:54.495Z,13.27
2023-03-27T05:35:48.391Z,15.82
2023-03-27T05:38:34.796Z,10.68
2023-03-27T05:41:49.748Z,22.15
2023-03-27T05:44:43.506Z,14.50
2023-03-27T05:47:29.713Z,12.10
2023-03-27T05:50:18.170Z,11.38
2023-03-27T05:53:05.778Z,10.35
2023-03-27T05:56:03.256Z,4.97
2023-03-27T05:58:57.464Z,4.85
2023-03-27T06:01:45.036Z,68.32
2023-03-27T06:04:34.323Z,107.03
2023-03-27T06:07:32.812Z,12.35
2023-03-27T06:10:23.625Z,10.18
2023-03-27T06:13:12.922Z,9.23
2023-03-27T06:16:22.424Z,4.20
2023-03-27T06:19:37.485Z,9.45
2023-03-27T06:22:23.763Z,9.32
2023-03-27T06:25:10.173Z,94.80
2023-03-27T06:27:57.182Z,81.18
2023-03-27T06:30:43.770Z,46.88
2023-03-27T06:33:44.665Z,49.83
2023-03-27T06:36:45.415Z,57.00
2023-03-27T06:39:32.651Z,75.40
2023-03-27T06:42:18.795Z,60.08
2023-03-27T06:45:18.342Z,55.15
2023-03-27T06:48:42.430Z,90.13
2023-03-27T06:51:28.662Z,47.28
2023-03-27T06:54:14.850Z,56.63
2023-03-27T06:57:06.621Z,65.72
2023-03-27T07:00:19.855Z,39.35
2023-03-27T07:03:34.005Z,33.30
2023-03-27T07:06:49.083Z,38.87
2023-03-27T07:09:38.715Z,32.17
2023-03-27T07:12:27.113Z,44.53
2023-03-27T07:15:13.957Z,46.80
2023-03-27T07:18:01.424Z,60.03
2023-03-27T07:20:48.342Z,55.63
2023-03-27T07:23:37.405Z,44.55
2023-03-27T07:26:27.223Z,48.28
2023-03-27T07:29:17.683Z,40.28
2023-03-27T07:32:09.681Z,32.95
2023-03-27T07:35:05.362Z,48.58
2023-03-27T07:38:29.413Z,40.28
2023-03-27T07:41:34.645Z,34.22
2023-03-27T07:44:38.273Z,26.88
2023-03-27T07:47:27.224Z,28.83
2023-03-27T07:50:18.125Z,50.58
2023-03-27T07:53:06.615Z,24.25
2023-03-27T07:55:54.805Z,30.15
2023-03-27T07:58:41.448Z,26.52
2023-03-27T08:01:28.475Z,23.58
2023-03-27T08:04:15.766Z,22.30
2023-03-27T08:07:08.105Z,18.20
2023-03-27T08:09:57.617Z,23.52
2023-03-27T08:12:43.774Z,23.50
2023-03-27T08:15:30.032Z,31.92
2023-03-27T08:18:17.078Z,46.65
2023-03-27T08:21:05.764Z,64.85
2023-03-27T08:23:57.317Z,82.05
2023-03-27T08:26:53.727Z,82.63
2023-03-27T08:29:42.862Z,38.95
2023-03-27T08:32:28.962Z,31.17
2023-03-27T08:35:15.658Z,35.88
2023-03-27T08:38:03.880Z,28.67
2023-03-27T08:41:18.688Z,3.60
2023-03-27T08:44:20.205Z,3.70
2023-03-27T08:47:17.089Z,1.40
2023-03-27T08:50:38.761Z,0.50
2023-03-27T08:53:44.220Z,0.30
2023-03-27T08:56:35.662Z,0.60
2023-03-27T08:59:24.271Z,0.50
2023-03-27T09:02:31.185Z,3.42
2023-03-27T09:05:20.911Z,1.65
2023-03-27T09:08:15.925Z,0.60
2023-03-27T09:11:05.724Z,0.45
2023-03-27T09:13:59.622Z,3.63
2023-03-27T09:16:49.743Z,0.60
2023-03-27T09:19:57.108Z,1.65
2023-03-27T09:23:16.307Z,2.90
2023-03-27T09:26:34.798Z,0.50
2023-03-27T09:29:26.937Z,0.47
2023-03-27T09:32:22.600Z,0.57
2023-03-27T09:35:13.473Z,0.40
2023-03-27T09:38:01.306Z,0.50
2023-03-27T09:41:23.653Z,0.40
2023-03-27T09:44:21.036Z,0.73
2023-03-27T09:47:23.246Z,3.80
2023-03-27T09:50:32.862Z,0.50
2023-03-27T09:53:28.192Z,1.38
2023-03-27T09:56:24.414Z,0.50
2023-03-27T09:59:24.348Z,0.85
2023-03-27T10:02:38.275Z,1.65
2023-03-27T10:05:25.395Z,1.10
2023-03-27T10:08:30.889Z,1.67
2023-03-27T10:11:32.651Z,2.38
2023-03-27T10:14:26.431Z,5.22
2023-03-27T10:17:21.811Z,32.70
2023-03-27T10:20:18.436Z,2.92
2023-03-27T10:23:36.235Z,1.25
2023-03-27T10:26:27.132Z,4.15
2023-03-27T10:29:32.753Z,17.77
2023-03-27T10:32:19.540Z,2.65
2023-03-27T10:35:31.163Z,18.35
2023-03-27T10:38:33.324Z,2.13
2023-03-27T10:41:29.907Z,0.93
2023-03-27T10:44:20.542Z,2.17
2023-03-27T10:47:19.530Z,11.45
2023-03-27T10:50:24.639Z,1.05
2023-03-27T10:53:24.554Z,3.53
2023-03-27T10:56:38.512Z,3.88
2023-03-27T11:02:57.814Z,2.45
2023-03-27T11:03:47.582Z,54.92
2023-03-27T11:05:47.371Z,8.40
2023-03-27T11:08:55.081Z,5.82
2023-03-27T11:11:49.469Z,17.48
2023-03-27T11:14:45.700Z,8.85
2023-03-27T11:17:55.724Z,6.97
2023-03-27T11:20:50.587Z,4.25
2023-03-27T11:24:00.347Z,5.22
2023-03-27T11:27:03.818Z,9.63
2023-03-27T11:30:04.814Z,7.00
2023-03-27T11:33:12.344Z,25.88
2023-03-27T11:36:20.198Z,16.38
2023-03-27T11:39:29.165Z,3.60
2023-03-27T11:42:24.306Z,5.47
2023-03-27T11:45:15.326Z,6.10
2023-03-27T11:48:41.733Z,6.60
2023-03-27T11:51:40.233Z,5.47
2023-03-27T11:54:26.349Z,10.25
2023-03-27T11:57:24.430Z,7.82
2023-03-27T12:00:27.474Z,60.90
2023-03-27T12:03:52.922Z,5.88
2023-03-27T12:06:51.295Z,12.57
2023-03-27T12:09:47.713Z,9.35
2023-03-27T12:13:16.801Z,58.20
2023-03-27T12:16:09.796Z,17.13
2023-03-27T12:19:28.557Z,10.95
2023-03-27T12:22:49.291Z,8.00
2023-03-27T12:25:58.690Z,16.98
2023-03-27T12:29:25.588Z,3.97
2023-03-27T12:32:22.052Z,14.27
2023-03-27T12:35:15.943Z,20.98
2023-03-27T12:38:16.787Z,6.10
2023-03-27T12:41:14.075Z,8.32
2023-03-27T12:44:18.106Z,10.43
2023-03-27T12:47:14.590Z,45.17
2023-03-27T12:50:01.382Z,8.50
2023-03-27T12:52:56.897Z,1.98
2023-03-27T12:55:48.050Z,5.90
2023-03-27T12:58:51.852Z,7.68
2023-03-27T13:02:06.290Z,4.05
2023-03-27T13:05:02.598Z,3.75
2023-03-27T13:08:00.269Z,5.57
2023-03-27T13:11:17.797Z,5.22
2023-03-27T13:14:10.270Z,9.95
2023-03-27T13:16:59.948Z,12.88
2023-03-27T13:20:09.115Z,15.45
2023-03-27T13:23:17.437Z,21.83
2023-03-27T13:26:14.521Z,13.35
2023-03-27T13:29:10.101Z,10.80
2023-03-27T13:32:07.461Z,9.18
2023-03-27T13:35:22.682Z,8.32
2023-03-27T13:38:11.772Z,6.95
2023-03-27T13:41:37.144Z,8.40
2023-03-27T13:44:38.977Z,13.32
2023-03-27T13:47:34.191Z,12.15
2023-03-27T13:50:29.343Z,7.80
2023-03-27T13:53:34.644Z,7.43
2023-03-27T13:57:01.324Z,6.20
2023-03-27T14:00:08.522Z,6.47
2023-03-27T14:03:22.652Z,9.18
2023-03-27T14:06:23.045Z,7.72
2023-03-27T14:09:16.224Z,5.93
2023-03-27T14:12:24.395Z,4.97
2023-03-27T14:15:46.902Z,4.18
2023-03-27T14:18:56.224Z,13.13
2023-03-27T14:21:50.082Z,8.07
2023-03-27T14:24:57.896Z,6.43
2023-03-27T14:27:59.720Z,10.40
2023-03-27T14:30:46.942Z,8.02
2023-03-27T14:34:12.342Z,8.18
2023-03-27T14:37:24.282Z,9.98
2023-03-27T14:40:27.437Z,13.50
2023-03-27T14:43:35.591Z,7.03
2023-03-27T14:46:22.374Z,17.80
2023-03-27T14:49:14.193Z,9.02
2023-03-27T14:52:01.596Z,9.68
2023-03-27T14:55:16.360Z,9.05
2023-03-27T14:58:11.522Z,3.88
2023-03-27T15:01:01.288Z,3.63
2023-03-27T15:03:53.127Z,2.22
2023-03-27T15:06:41.581Z,0.63
2023-03-27T15:09:28.116Z,0.70
2023-03-27T15:12:47.224Z,0.50
2023-03-27T15:15:39.145Z,1.00
2023-03-27T15:18:34.571Z,1.40
2023-03-27T15:21:34.924Z,3.30
2023-03-27T15:24:34.311Z,0.65
2023-03-27T15:27:23.789Z,0.85
2023-03-27T15:30:19.405Z,0.30
2023-03-27T15:33:07.807Z,0.50
2023-03-27T15:35:54.552Z,0.50
2023-03-27T15:38:43.026Z,4.28
2023-03-27T15:41:32.240Z,0.60
2023-03-27T15:44:19.962Z,0.50
2023-03-27T15:47:22.237Z,0.98
2023-03-27T15:50:22.860Z,0.50
2023-03-27T15:53:09.374Z,1.02
2023-03-27T15:55:57.295Z,0.60
2023-03-27T15:58:58.668Z,0.50
2023-03-27T16:01:54.453Z,3.67
2023-03-27T16:04:51.002Z,4.45
2023-03-27T16:07:42.609Z,0.73
2023-03-27T16:10:32.974Z,0.88
2023-03-27T16:13:26.315Z,2.78
2023-03-27T16:16:27.408Z,1.27
2023-03-27T16:19:16.175Z,1.67
2023-03-27T16:22:02.251Z,1.48
2023-03-27T16:24:48.403Z,12.25
2023-03-27T16:27:48.528Z,0.85
2023-03-27T16:30:36.640Z,1.95
2023-03-27T16:33:22.932Z,1.20
2023-03-27T16:36:13.024Z,0.95
2023-03-27T16:38:59.205Z,1.05
2023-03-27T16:42:03.868Z,2.00
2023-03-27T16:44:50.358Z,16.75
2023-03-27T16:47:36.719Z,16.75
2023-03-27T16:50:25.381Z,2.08
2023-03-27T16:53:11.814Z,0.65
2023-03-27T16:56:03.401Z,2.33
2023-03-27T16:58:50.219Z,2.67
2023-03-27T17:01:36.531Z,1.15
2023-03-27T17:04:23.096Z,0.70
2023-03-27T17:07:09.078Z,9.05
2023-03-27T17:09:55.664Z,1.08
2023-03-27T17:12:42.315Z,1.80
2023-03-27T17:15:29.323Z,1.05
2023-03-27T17:18:15.692Z,9.35
2023-03-27T17:21:02.059Z,0.73
2023-03-27T17:23:49.025Z,1.38
2023-03-27T17:26:36.040Z,4.60
2023-03-27T17:29:22.801Z,0.93
2023-03-27T17:32:08.930Z,13.20
2023-03-27T17:34:55.407Z,24.67
2023-03-27T17:37:41.590Z,2.90
2023-03-27T17:40:28.064Z,15.05
2023-03-27T17:43:51.787Z,20.35
2023-03-27T17:46:38.311Z,53.10
2023-03-27T17:49:45.277Z,32.45
2023-03-27T17:52:31.618Z,25.35
2023-03-27T17:55:17.989Z,1.15
2023-03-27T17:58:09.336Z,2.47
2023-03-27T18:00:57.292Z,16.88
2023-03-27T18:03:44.581Z,2.90
2023-03-27T18:06:30.937Z,1.45
2023-03-27T18:09:17.295Z,17.42
2023-03-27T18:12:03.444Z,16.50
2023-03-27T18:14:49.632Z,11.45
2023-03-27T18:17:36.247Z,0.73
2023-03-27T18:20:23.662Z,1.75
2023-03-27T18:23:09.811Z,8.23
2023-03-27T18:25:56.362Z,13.57
2023-03-27T18:28:42.970Z,3.92
2023-03-27T18:31:29.689Z,19.08
2023-03-27T18:34:15.918Z,3.17
2023-03-27T18:37:04.035Z,11.57
2023-03-27T18:39:49.865Z,21.95
2023-03-27T18:42:37.618Z,6.55
2023-03-27T18:45:24.672Z,40.35
2023-03-27T18:48:10.813Z,3.03
2023-03-27T18:50:58.154Z,4.63
2023-03-27T18:53:44.096Z,24.98
2023-03-27T18:56:30.228Z,21.20
2023-03-27T18:59:16.828Z,4.15
2023-03-27T19:02:03.977Z,19.50
2023-03-27T19:04:49.983Z,33.55
2023-03-27T19:07:37.056Z,1.33
2023-03-27T19:10:34.014Z,1.85
2023-03-27T19:13:36.134Z,5.88
2023-03-27T19:16:40.982Z,41.80
2023-03-27T19:19:58.377Z,26.30
2023-03-27T19:23:15.035Z,3.40
2023-03-27T19:26:22.834Z,76.88
2023-03-27T19:29:09.014Z,21.50
2023-03-27T19:31:55.398Z,19.30
2023-03-27T19:34:43.152Z,4.85
2023-03-27T19:37:29.930Z,2.03
2023-03-27T19:40:16.275Z,4.38
2023-03-27T19:43:02.484Z,0.75
2023-03-27T19:45:58.397Z,0.70
2023-03-27T19:48:51.547Z,0.60
2023-03-27T19:51:57.842Z,0.85
2023-03-27T19:54:43.703Z,0.70
2023-03-27T19:57:29.915Z,0.70
2023-03-27T20:00:16.548Z,0.77
2023-03-27T20:03:04.081Z,6.13
2023-03-27T20:05:51.499Z,1.15
2023-03-27T20:08:39.666Z,0.70
2023-03-27T20:11:27.221Z,0.70
2023-03-27T20:14:13.733Z,0.60
2023-03-27T20:16:59.613Z,0.40
2023-03-27T20:20:12.361Z,1.15
2023-03-27T20:23:01.908Z,0.80
2023-03-27T20:25:51.876Z,0.85
2023-03-27T20:28:37.796Z,0.98
2023-03-27T20:31:24.031Z,0.70
2023-03-27T20:34:12.794Z,0.70
2023-03-27T20:37:01.016Z,1.25
2023-03-27T20:40:11.850Z,1.67
2023-03-27T20:43:03.729Z,1.35
2023-03-27T20:45:55.013Z,0.55
2023-03-27T20:48:53.848Z,0.65
2023-03-27T20:51:42.684Z,0.85
2023-03-27T20:54:29.788Z,0.75
2023-03-27T20:57:16.357Z,0.63
2023-03-27T21:00:07.345Z,0.80
2023-03-27T21:02:56.700Z,1.88
2023-03-27T21:05:43.105Z,0.63
2023-03-27T21:08:31.525Z,0.82
2023-03-27T21:11:17.424Z,0.57
2023-03-27T21:14:05.982Z,0.75
2023-03-27T21:16:52.072Z,0.88
2023-03-27T21:19:39.731Z,0.75
2023-03-27T21:22:26.242Z,0.57
2023-03-27T21:25:12.317Z,0.60
2023-03-27T21:27:58.527Z,0.50
2023-03-27T21:30:46.969Z,1.40
2023-03-27T21:33:34.796Z,0.93
2023-03-27T21:36:21.273Z,0.60
2023-03-27T21:39:09.079Z,1.15
2023-03-27T21:41:55.293Z,0.60
2023-03-27T21:44:41.503Z,2.50
2023-03-27T21:47:37.282Z,0.60
2023-03-27T21:50:31.130Z,0.60
2023-03-27T21:53:17.286Z,0.50
2023-03-27T21:56:03.660Z,0.50
2023-03-27T21:58:51.923Z,0.52
2023-03-27T22:01:38.266Z,0.40
2023-03-27T22:04:24.760Z,0.50
2023-03-27T22:07:10.733Z,0.70
2023-03-27T22:09:57.173Z,0.85
2023-03-27T22:12:43.288Z,0.40
2023-03-27T22:15:30.036Z,0.60
2023-03-27T22:18:16.272Z,1.17
2023-03-27T22:21:11.454Z,2.67
2023-03-27T22:23:58.341Z,0.50
2023-03-27T22:26:44.520Z,0.47
2023-03-27T22:29:30.595Z,0.73
2023-03-27T22:32:16.822Z,1.00
2023-03-27T22:35:02.830Z,0.40
2023-03-27T22:37:49.153Z,0.50
2023-03-27T22:40:54.105Z,0.50
2023-03-27T22:43:40.621Z,0.68
2023-03-27T22:46:26.506Z,0.70
2023-03-27T22:49:31.523Z,0.60
2023-03-27T22:52:17.685Z,0.60
2023-03-27T22:55:04.601Z,0.60
2023-03-27T22:57:50.601Z,0.68
2023-03-27T23:00:36.925Z,0.60
2023-03-27T23:03:24.045Z,0.60
2023-03-27T23:06:16.294Z,8.68
2023-03-27T23:09:02.397Z,1.23
2023-03-27T23:11:48.570Z,0.70
2023-03-27T23:14:34.693Z,0.60
2023-03-27T23:17:21.047Z,0.70
2023-03-27T23:20:07.830Z,1.10
2023-03-27T23:22:54.464Z,0.60
2023-03-27T23:25:42.376Z,6.20
2023-03-27T23:28:29.920Z,0.50
2023-03-27T23:31:17.179Z,0.70
2023-03-27T23:34:03.685Z,0.98
2023-03-27T23:36:49.864Z,0.75
2023-03-27T23:39:35.996Z,2.15
2023-03-27T23:42:22.295Z,0.70
2023-03-27T23:45:08.680Z,0.60
2023-03-27T23:47:54.953Z,6.03
2023-03-27T23:50:41.219Z,0.63
2023-03-27T23:53:28.993Z,0.80
2023-03-27T23:56:15.691Z,1.05
2023-03-27T23:59:02.082Z,0.52
